sensor_id;sensor_type;location;lat;lon;timestamp;P1;durP1;ratioP1;P2;durP2;ratioP2
20002;SDS011;10162;41.600;23.806;2022-07-30T00:06:04;13.10;;;8.00;;
20002;SDS011;10162;41.600;23.806;2022-07-30T00:08:30;10.80;;;7.63;;
20002;SDS011;10162;41.600;23.806;2022-07-30T00:14:42;8.20;;;7.40;;
20002;SDS011;10162;41.600;23.806;2022-07-30T00:17:08;9.47;;;8.57;;
20002;SDS011;10162;41.600;23.806;2022-07-30T00:19:34;11.03;;;8.30;;
20002;SDS011;10162;41.600;23.806;2022-07-30T00:25:47;9.67;;;8.00;;
20002;SDS011;10162;41.600;23.806;2022-07-30T00:28:13;8.73;;;7.83;;
20002;SDS011;10162;41.600;23.806;2022-07-30T00:34:38;9.33;;;8.33;;
20002;SDS011;10162;41.600;23.806;2022-07-30T00:37:04;9.67;;;8.67;;
20002;SDS011;10162;41.600;23.806;2022-07-30T00:39:29;11.23;;;8.80;;
20002;SDS011;10162;41.600;23.806;2022-07-30T00:45:42;11.00;;;9.03;;
20002;SDS011;10162;41.600;23.806;2022-07-30T00:48:10;9.50;;;8.57;;
20002;SDS011;10162;41.600;23.806;2022-07-30T00:54:23;9.70;;;8.70;;
20002;SDS011;10162;41.600;23.806;2022-07-30T00:56:49;10.90;;;8.97;;
20002;SDS011;10162;41.600;23.806;2022-07-30T00:59:15;11.70;;;9.60;;
20002;SDS011;10162;41.600;23.806;2022-07-30T01:05:27;9.27;;;8.30;;
20002;SDS011;10162;41.600;23.806;2022-07-30T01:07:53;10.07;;;8.43;;
20002;SDS011;10162;41.600;23.806;2022-07-30T01:10:19;9.70;;;8.80;;
20002;SDS011;10162;41.600;23.806;2022-07-30T01:12:44;9.43;;;8.53;;
20002;SDS011;10162;41.600;23.806;2022-07-30T01:15:11;10.23;;;9.13;;
20002;SDS011;10162;41.600;23.806;2022-07-30T01:17:37;9.10;;;8.30;;
20002;SDS011;10162;41.600;23.806;2022-07-30T01:20:12;9.90;;;8.90;;
20002;SDS011;10162;41.600;23.806;2022-07-30T01:22:49;9.33;;;8.30;;
20002;SDS011;10162;41.600;23.806;2022-07-30T01:27:51;9.37;;;8.30;;
20002;SDS011;10162;41.600;23.806;2022-07-30T01:30:22;9.33;;;8.50;;
20002;SDS011;10162;41.600;23.806;2022-07-30T01:32:51;10.30;;;8.10;;
20002;SDS011;10162;41.600;23.806;2022-07-30T01:35:19;9.60;;;8.60;;
20002;SDS011;10162;41.600;23.806;2022-07-30T01:37:48;10.33;;;8.10;;
20002;SDS011;10162;41.600;23.806;2022-07-30T01:40:17;8.90;;;7.90;;
20002;SDS011;10162;41.600;23.806;2022-07-30T01:42:46;8.63;;;7.73;;
20002;SDS011;10162;41.600;23.806;2022-07-30T01:45:21;9.80;;;8.80;;
20002;SDS011;10162;41.600;23.806;2022-07-30T01:47:49;8.67;;;7.77;;
20002;SDS011;10162;41.600;23.806;2022-07-30T01:50:19;11.63;;;7.97;;
20002;SDS011;10162;41.600;23.806;2022-07-30T01:52:47;8.87;;;8.00;;
20002;SDS011;10162;41.600;23.806;2022-07-30T01:55:16;9.60;;;8.70;;
20002;SDS011;10162;41.600;23.806;2022-07-30T01:57:49;9.13;;;8.10;;
20002;SDS011;10162;41.600;23.806;2022-07-30T02:00:15;9.90;;;8.90;;
20002;SDS011;10162;41.600;23.806;2022-07-30T02:09:34;11.90;;;9.00;;
20002;SDS011;10162;41.600;23.806;2022-07-30T02:16:07;9.30;;;8.30;;
20002;SDS011;10162;41.600;23.806;2022-07-30T02:18:42;9.60;;;8.70;;
20002;SDS011;10162;41.600;23.806;2022-07-30T02:24:59;13.87;;;8.40;;
20002;SDS011;10162;41.600;23.806;2022-07-30T02:27:32;10.83;;;8.57;;
20002;SDS011;10162;41.600;23.806;2022-07-30T02:30:01;9.83;;;8.83;;
20002;SDS011;10162;41.600;23.806;2022-07-30T02:36:18;10.43;;;9.00;;
20002;SDS011;10162;41.600;23.806;2022-07-30T02:38:45;10.10;;;9.10;;
20002;SDS011;10162;41.600;23.806;2022-07-30T02:44:58;10.70;;;9.33;;
20002;SDS011;10162;41.600;23.806;2022-07-30T02:47:26;16.53;;;13.80;;
20002;SDS011;10162;41.600;23.806;2022-07-30T02:49:56;24.67;;;22.17;;
20002;SDS011;10162;41.600;23.806;2022-07-30T02:56:12;14.27;;;11.00;;
20002;SDS011;10162;41.600;23.806;2022-07-30T02:58:45;14.73;;;10.30;;
20002;SDS011;10162;41.600;23.806;2022-07-30T03:05:00;10.90;;;9.80;;
20002;SDS011;10162;41.600;23.806;2022-07-30T03:07:30;10.10;;;8.70;;
20002;SDS011;10162;41.600;23.806;2022-07-30T03:09:59;11.87;;;9.53;;
20002;SDS011;10162;41.600;23.806;2022-07-30T03:16:13;11.03;;;9.07;;
20002;SDS011;10162;41.600;23.806;2022-07-30T03:18:41;9.90;;;8.90;;
20002;SDS011;10162;41.600;23.806;2022-07-30T03:24:56;10.60;;;9.10;;
20002;SDS011;10162;41.600;23.806;2022-07-30T03:27:23;11.77;;;9.67;;
20002;SDS011;10162;41.600;23.806;2022-07-30T03:29:50;9.40;;;8.50;;
20002;SDS011;10162;41.600;23.806;2022-07-30T03:36:13;11.77;;;9.03;;
20002;SDS011;10162;41.600;23.806;2022-07-30T03:38:40;11.27;;;9.40;;
20002;SDS011;10162;41.600;23.806;2022-07-30T03:44:54;10.43;;;9.33;;
20002;SDS011;10162;41.600;23.806;2022-07-30T03:47:22;11.27;;;10.07;;
20002;SDS011;10162;41.600;23.806;2022-07-30T03:49:50;11.13;;;9.13;;
20002;SDS011;10162;41.600;23.806;2022-07-30T03:56:04;12.07;;;10.47;;
20002;SDS011;10162;41.600;23.806;2022-07-30T03:58:55;11.17;;;10.00;;
20002;SDS011;10162;41.600;23.806;2022-07-30T04:05:08;13.00;;;10.47;;
20002;SDS011;10162;41.600;23.806;2022-07-30T04:07:36;10.60;;;9.50;;
20002;SDS011;10162;41.600;23.806;2022-07-30T04:10:02;11.40;;;10.37;;
20002;SDS011;10162;41.600;23.806;2022-07-30T04:13:00;11.57;;;10.37;;
20002;SDS011;10162;41.600;23.806;2022-07-30T04:15:29;13.00;;;10.87;;
20002;SDS011;10162;41.600;23.806;2022-07-30T04:18:00;10.47;;;9.37;;
20002;SDS011;10162;41.600;23.806;2022-07-30T04:24:15;11.27;;;9.93;;
20002;SDS011;10162;41.600;23.806;2022-07-30T04:26:43;10.67;;;9.60;;
20002;SDS011;10162;41.600;23.806;2022-07-30T04:29:13;12.30;;;10.20;;
20002;SDS011;10162;41.600;23.806;2022-07-30T04:35:28;16.57;;;11.27;;
20002;SDS011;10162;41.600;23.806;2022-07-30T04:38:08;11.07;;;9.97;;
20002;SDS011;10162;41.600;23.806;2022-07-30T04:44:22;13.20;;;11.53;;
20002;SDS011;10162;41.600;23.806;2022-07-30T04:47:08;13.13;;;11.77;;
20002;SDS011;10162;41.600;23.806;2022-07-30T04:49:39;13.40;;;12.10;;
20002;SDS011;10162;41.600;23.806;2022-07-30T04:55:53;10.93;;;9.60;;
20002;SDS011;10162;41.600;23.806;2022-07-30T04:58:24;13.23;;;9.90;;
20002;SDS011;10162;41.600;23.806;2022-07-30T05:04:39;10.33;;;9.33;;
20002;SDS011;10162;41.600;23.806;2022-07-30T05:07:06;10.70;;;9.60;;
20002;SDS011;10162;41.600;23.806;2022-07-30T05:09:32;10.13;;;8.97;;
20002;SDS011;10162;41.600;23.806;2022-07-30T05:15:47;12.90;;;9.57;;
20002;SDS011;10162;41.600;23.806;2022-07-30T05:18:16;10.47;;;9.07;;
20002;SDS011;10162;41.600;23.806;2022-07-30T05:24:29;9.33;;;8.43;;
20002;SDS011;10162;41.600;23.806;2022-07-30T05:26:56;9.13;;;8.23;;
20002;SDS011;10162;41.600;23.806;2022-07-30T05:29:24;11.57;;;10.57;;
20002;SDS011;10162;41.600;23.806;2022-07-30T05:35:42;11.13;;;9.70;;
20002;SDS011;10162;41.600;23.806;2022-07-30T05:38:08;11.13;;;9.50;;
20002;SDS011;10162;41.600;23.806;2022-07-30T05:44:32;11.25;;;10.25;;
20002;SDS011;10162;41.600;23.806;2022-07-30T05:46:58;10.07;;;9.02;;
20002;SDS011;10162;41.600;23.806;2022-07-30T05:49:24;12.63;;;9.52;;
20002;SDS011;10162;41.600;23.806;2022-07-30T05:55:39;9.35;;;8.45;;
20002;SDS011;10162;41.600;23.806;2022-07-30T05:58:11;10.13;;;9.18;;
20002;SDS011;10162;41.600;23.806;2022-07-30T06:04:25;12.80;;;11.45;;
20002;SDS011;10162;41.600;23.806;2022-07-30T06:06:56;15.43;;;11.65;;
20002;SDS011;10162;41.600;23.806;2022-07-30T06:09:23;13.20;;;12.00;;
20002;SDS011;10162;41.600;23.806;2022-07-30T06:15:36;14.13;;;12.63;;
20002;SDS011;10162;41.600;23.806;2022-07-30T06:18:02;14.30;;;12.80;;
20002;SDS011;10162;41.600;23.806;2022-07-30T06:24:27;14.80;;;13.45;;
20002;SDS011;10162;41.600;23.806;2022-07-30T06:27:01;15.70;;;14.10;;
20002;SDS011;10162;41.600;23.806;2022-07-30T06:29:27;16.15;;;13.77;;
20002;SDS011;10162;41.600;23.806;2022-07-30T06:35:40;14.60;;;13.20;;
20002;SDS011;10162;41.600;23.806;2022-07-30T06:38:07;14.30;;;12.95;;
20002;SDS011;10162;41.600;23.806;2022-07-30T06:44:26;13.00;;;11.70;;
20002;SDS011;10162;41.600;23.806;2022-07-30T06:47:07;12.75;;;11.50;;
20002;SDS011;10162;41.600;23.806;2022-07-30T07:02:29;13.68;;;11.65;;
20002;SDS011;10162;41.600;23.806;2022-07-30T07:05:16;13.55;;;12.13;;
20002;SDS011;10162;41.600;23.806;2022-07-30T07:07:45;13.10;;;11.90;;
20002;SDS011;10162;41.600;23.806;2022-07-30T07:10:13;12.63;;;11.45;;
20002;SDS011;10162;41.600;23.806;2022-07-30T07:15:38;12.02;;;10.95;;
20002;SDS011;10162;41.600;23.806;2022-07-30T07:18:08;12.45;;;11.10;;
20002;SDS011;10162;41.600;23.806;2022-07-30T07:20:38;12.90;;;11.57;;
20002;SDS011;10162;41.600;23.806;2022-07-30T07:26:07;17.02;;;11.95;;
20002;SDS011;10162;41.600;23.806;2022-07-30T07:28:33;12.13;;;10.93;;
20002;SDS011;10162;41.600;23.806;2022-07-30T07:31:00;12.50;;;10.82;;
20002;SDS011;10162;41.600;23.806;2022-07-30T07:35:54;11.93;;;10.10;;
20002;SDS011;10162;41.600;23.806;2022-07-30T07:38:25;11.38;;;10.38;;
20002;SDS011;10162;41.600;23.806;2022-07-30T07:40:53;13.40;;;10.88;;
20002;SDS011;10162;41.600;23.806;2022-07-30T07:43:18;13.30;;;11.10;;
20002;SDS011;10162;41.600;23.806;2022-07-30T07:45:44;11.38;;;10.27;;
20002;SDS011;10162;41.600;23.806;2022-07-30T07:48:11;11.25;;;9.80;;
20002;SDS011;10162;41.600;23.806;2022-07-30T07:50:43;10.13;;;9.15;;
20002;SDS011;10162;41.600;23.806;2022-07-30T07:55:46;9.85;;;8.73;;
20002;SDS011;10162;41.600;23.806;2022-07-30T07:58:12;11.48;;;9.27;;
20002;SDS011;10162;41.600;23.806;2022-07-30T08:00:39;12.75;;;9.32;;
20002;SDS011;10162;41.600;23.806;2022-07-30T08:03:06;9.85;;;8.85;;
20002;SDS011;10162;41.600;23.806;2022-07-30T08:05:32;12.93;;;9.43;;
20002;SDS011;10162;41.600;23.806;2022-07-30T08:08:14;9.30;;;8.40;;
20002;SDS011;10162;41.600;23.806;2022-07-30T08:11:03;10.85;;;9.13;;
20002;SDS011;10162;41.600;23.806;2022-07-30T08:13:48;16.27;;;12.77;;
20002;SDS011;10162;41.600;23.806;2022-07-30T08:16:32;9.30;;;8.50;;
20002;SDS011;10162;41.600;23.806;2022-07-30T08:19:07;8.45;;;7.57;;
20002;SDS011;10162;41.600;23.806;2022-07-30T08:21:37;8.35;;;7.63;;
20002;SDS011;10162;41.600;23.806;2022-07-30T08:24:03;10.55;;;7.80;;
20002;SDS011;10162;41.600;23.806;2022-07-30T08:26:30;7.70;;;6.93;;
20002;SDS011;10162;41.600;23.806;2022-07-30T08:28:56;8.27;;;7.57;;
20002;SDS011;10162;41.600;23.806;2022-07-30T08:31:21;9.60;;;6.95;;
20002;SDS011;10162;41.600;23.806;2022-07-30T08:33:47;7.10;;;6.50;;
20002;SDS011;10162;41.600;23.806;2022-07-30T08:36:13;12.05;;;11.00;;
20002;SDS011;10162;41.600;23.806;2022-07-30T08:38:39;7.55;;;6.78;;
20002;SDS011;10162;41.600;23.806;2022-07-30T08:41:06;9.35;;;7.30;;
20002;SDS011;10162;41.600;23.806;2022-07-30T08:43:31;7.38;;;6.70;;
20002;SDS011;10162;41.600;23.806;2022-07-30T08:45:59;9.40;;;6.32;;
20002;SDS011;10162;41.600;23.806;2022-07-30T08:48:58;7.20;;;6.55;;
20002;SDS011;10162;41.600;23.806;2022-07-30T08:51:24;8.48;;;6.45;;
20002;SDS011;10162;41.600;23.806;2022-07-30T08:54:09;10.00;;;7.05;;
20002;SDS011;10162;41.600;23.806;2022-07-30T08:56:35;6.95;;;6.35;;
20002;SDS011;10162;41.600;23.806;2022-07-30T08:59:01;6.82;;;6.05;;
20002;SDS011;10162;41.600;23.806;2022-07-30T09:01:28;6.93;;;6.20;;
20002;SDS011;10162;41.600;23.806;2022-07-30T09:03:55;7.93;;;6.57;;
20002;SDS011;10162;41.600;23.806;2022-07-30T09:06:24;6.82;;;6.22;;
20002;SDS011;10162;41.600;23.806;2022-07-30T09:08:49;7.00;;;6.45;;
20002;SDS011;10162;41.600;23.806;2022-07-30T09:11:15;7.25;;;6.55;;
20002;SDS011;10162;41.600;23.806;2022-07-30T09:13:41;6.57;;;5.97;;
20002;SDS011;10162;41.600;23.806;2022-07-30T09:18:52;5.68;;;5.18;;
20002;SDS011;10162;41.600;23.806;2022-07-30T09:21:19;6.63;;;6.00;;
20002;SDS011;10162;41.600;23.806;2022-07-30T09:24:10;6.95;;;5.47;;
20002;SDS011;10162;41.600;23.806;2022-07-30T09:26:56;5.80;;;5.22;;
20002;SDS011;10162;41.600;23.806;2022-07-30T09:29:59;5.47;;;4.95;;
20002;SDS011;10162;41.600;23.806;2022-07-30T09:35:31;6.45;;;4.80;;
20002;SDS011;10162;41.600;23.806;2022-07-30T09:38:10;6.85;;;5.20;;
20002;SDS011;10162;41.600;23.806;2022-07-30T09:40:55;7.00;;;4.78;;
20002;SDS011;10162;41.600;23.806;2022-07-30T09:43:45;6.38;;;4.82;;
20002;SDS011;10162;41.600;23.806;2022-07-30T09:46:21;5.82;;;5.32;;
20002;SDS011;10162;41.600;23.806;2022-07-30T09:48:49;6.97;;;5.07;;
20002;SDS011;10162;41.600;23.806;2022-07-30T09:51:14;5.70;;;5.10;;
20002;SDS011;10162;41.600;23.806;2022-07-30T09:53:57;7.55;;;4.93;;
20002;SDS011;10162;41.600;23.806;2022-07-30T09:56:27;5.50;;;5.00;;
20002;SDS011;10162;41.600;23.806;2022-07-30T09:58:54;4.78;;;4.38;;
20002;SDS011;10162;41.600;23.806;2022-07-30T10:01:20;5.07;;;4.28;;
20002;SDS011;10162;41.600;23.806;2022-07-30T10:04:28;4.47;;;4.07;;
20002;SDS011;10162;41.600;23.806;2022-07-30T10:07:04;4.80;;;4.32;;
20002;SDS011;10162;41.600;23.806;2022-07-30T10:09:48;4.80;;;4.30;;
20002;SDS011;10162;41.600;23.806;2022-07-30T10:12:16;5.75;;;4.25;;
20002;SDS011;10162;41.600;23.806;2022-07-30T10:14:46;5.43;;;4.45;;
20002;SDS011;10162;41.600;23.806;2022-07-30T10:17:18;4.43;;;4.05;;
20002;SDS011;10162;41.600;23.806;2022-07-30T10:20:02;6.32;;;4.28;;
20002;SDS011;10162;41.600;23.806;2022-07-30T10:22:51;4.53;;;4.22;;
20002;SDS011;10162;41.600;23.806;2022-07-30T10:25:21;6.85;;;3.72;;
20002;SDS011;10162;41.600;23.806;2022-07-30T10:28:06;5.00;;;3.92;;
20002;SDS011;10162;41.600;23.806;2022-07-30T10:30:36;6.85;;;4.28;;
20002;SDS011;10162;41.600;23.806;2022-07-30T10:33:02;4.85;;;4.35;;
20002;SDS011;10162;41.600;23.806;2022-07-30T10:35:28;5.65;;;4.82;;
20002;SDS011;10162;41.600;23.806;2022-07-30T10:37:54;5.22;;;4.82;;
20002;SDS011;10162;41.600;23.806;2022-07-30T10:40:32;4.50;;;4.10;;
20002;SDS011;10162;41.600;23.806;2022-07-30T10:45:44;4.32;;;4.03;;
20002;SDS011;10162;41.600;23.806;2022-07-30T10:48:19;6.03;;;4.40;;
20002;SDS011;10162;41.600;23.806;2022-07-30T10:56:16;6.32;;;4.35;;
20002;SDS011;10162;41.600;23.806;2022-07-30T10:58:58;5.13;;;4.70;;
20002;SDS011;10162;41.600;23.806;2022-07-30T11:04:28;4.80;;;4.50;;
20002;SDS011;10162;41.600;23.806;2022-07-30T11:09:48;6.53;;;5.53;;
20002;SDS011;10162;41.600;23.806;2022-07-30T11:12:15;5.63;;;5.00;;
20002;SDS011;10162;41.600;23.806;2022-07-30T11:15:10;6.30;;;5.68;;
20002;SDS011;10162;41.600;23.806;2022-07-30T11:18:10;6.53;;;5.93;;
20002;SDS011;10162;41.600;23.806;2022-07-30T11:20:34;6.60;;;5.95;;
20002;SDS011;10162;41.600;23.806;2022-07-30T11:25:46;7.82;;;6.40;;
20002;SDS011;10162;41.600;23.806;2022-07-30T11:31:00;9.25;;;6.05;;
20002;SDS011;10162;41.600;23.806;2022-07-30T11:33:26;6.28;;;5.68;;
20002;SDS011;10162;41.600;23.806;2022-07-30T11:42:03;7.00;;;6.30;;
20002;SDS011;10162;41.600;23.806;2022-07-30T11:47:51;7.03;;;6.32;;
20002;SDS011;10162;41.600;23.806;2022-07-30T11:56:04;6.30;;;5.10;;
20002;SDS011;10162;41.600;23.806;2022-07-30T11:58:30;6.95;;;5.70;;
20002;SDS011;10162;41.600;23.806;2022-07-30T12:01:00;6.50;;;5.90;;
20002;SDS011;10162;41.600;23.806;2022-07-30T12:06:30;8.00;;;5.63;;
20002;SDS011;10162;41.600;23.806;2022-07-30T12:08:57;7.18;;;6.15;;
20002;SDS011;10162;41.600;23.806;2022-07-30T12:11:23;7.00;;;6.32;;
20002;SDS011;10162;41.600;23.806;2022-07-30T12:16:49;7.60;;;6.57;;
20002;SDS011;10162;41.600;23.806;2022-07-30T12:19:16;6.38;;;5.78;;
20002;SDS011;10162;41.600;23.806;2022-07-30T12:21:46;6.53;;;6.03;;
20002;SDS011;10162;41.600;23.806;2022-07-30T12:24:30;6.97;;;6.38;;
20002;SDS011;10162;41.600;23.806;2022-07-30T12:27:03;7.45;;;6.85;;
20002;SDS011;10162;41.600;23.806;2022-07-30T12:29:30;7.22;;;6.53;;
20002;SDS011;10162;41.600;23.806;2022-07-30T12:31:58;10.30;;;6.50;;
20002;SDS011;10162;41.600;23.806;2022-07-30T12:34:38;7.63;;;6.82;;
20002;SDS011;10162;41.600;23.806;2022-07-30T12:37:19;6.70;;;6.07;;
20002;SDS011;10162;41.600;23.806;2022-07-30T12:39:44;6.82;;;6.15;;
20002;SDS011;10162;41.600;23.806;2022-07-30T12:42:17;6.70;;;6.18;;
20002;SDS011;10162;41.600;23.806;2022-07-30T12:44:44;7.72;;;6.65;;
20002;SDS011;10162;41.600;23.806;2022-07-30T12:47:20;8.75;;;6.68;;
20002;SDS011;10162;41.600;23.806;2022-07-30T12:49:54;6.93;;;6.32;;
20002;SDS011;10162;41.600;23.806;2022-07-30T12:52:22;6.90;;;6.25;;
20002;SDS011;10162;41.600;23.806;2022-07-30T12:54:59;7.13;;;6.47;;
20002;SDS011;10162;41.600;23.806;2022-07-30T12:57:25;7.75;;;6.70;;
20002;SDS011;10162;41.600;23.806;2022-07-30T13:00:01;6.85;;;6.28;;
20002;SDS011;10162;41.600;23.806;2022-07-30T13:02:31;6.60;;;6.00;;
20002;SDS011;10162;41.600;23.806;2022-07-30T13:08:53;7.20;;;6.60;;
20002;SDS011;10162;41.600;23.806;2022-07-30T13:11:21;6.60;;;6.00;;
20002;SDS011;10162;41.600;23.806;2022-07-30T13:17:35;6.78;;;6.28;;
20002;SDS011;10162;41.600;23.806;2022-07-30T13:20:01;6.70;;;6.10;;
20002;SDS011;10162;41.600;23.806;2022-07-30T13:22:27;7.10;;;6.15;;
20002;SDS011;10162;41.600;23.806;2022-07-30T13:28:40;7.53;;;6.18;;
20002;SDS011;10162;41.600;23.806;2022-07-30T13:31:06;6.88;;;6.28;;
20002;SDS011;10162;41.600;23.806;2022-07-30T13:37:18;7.57;;;6.88;;
20002;SDS011;10162;41.600;23.806;2022-07-30T13:39:44;7.57;;;6.88;;
20002;SDS011;10162;41.600;23.806;2022-07-30T13:42:10;7.40;;;6.70;;
20002;SDS011;10162;41.600;23.806;2022-07-30T13:48:23;7.47;;;6.78;;
20002;SDS011;10162;41.600;23.806;2022-07-30T13:50:48;7.40;;;6.65;;
20002;SDS011;10162;41.600;23.806;2022-07-30T13:57:02;14.57;;;6.78;;
20002;SDS011;10162;41.600;23.806;2022-07-30T13:59:27;7.65;;;6.72;;
20002;SDS011;10162;41.600;23.806;2022-07-30T14:01:54;7.55;;;6.10;;
20002;SDS011;10162;41.600;23.806;2022-07-30T14:08:08;7.95;;;7.20;;
20002;SDS011;10162;41.600;23.806;2022-07-30T14:10:35;6.97;;;6.38;;
20002;SDS011;10162;41.600;23.806;2022-07-30T14:16:49;7.18;;;6.57;;
20002;SDS011;10162;41.600;23.806;2022-07-30T14:19:15;6.82;;;6.22;;
20002;SDS011;10162;41.600;23.806;2022-07-30T14:21:42;7.13;;;6.53;;
20002;SDS011;10162;41.600;23.806;2022-07-30T14:27:55;7.38;;;6.68;;
20002;SDS011;10162;41.600;23.806;2022-07-30T14:30:20;9.95;;;7.07;;
20002;SDS011;10162;41.600;23.806;2022-07-30T14:32:48;10.20;;;6.45;;
20002;SDS011;10162;41.600;23.806;2022-07-30T14:35:13;6.53;;;6.03;;
20002;SDS011;10162;41.600;23.806;2022-07-30T14:37:39;7.20;;;6.60;;
20002;SDS011;10162;41.600;23.806;2022-07-30T14:40:05;6.90;;;6.40;;
20002;SDS011;10162;41.600;23.806;2022-07-30T14:42:33;7.43;;;6.70;;
20002;SDS011;10162;41.600;23.806;2022-07-30T14:48:48;7.63;;;6.88;;
20002;SDS011;10162;41.600;23.806;2022-07-30T14:51:17;7.15;;;6.53;;
20002;SDS011;10162;41.600;23.806;2022-07-30T14:57:30;6.80;;;6.20;;
20002;SDS011;10162;41.600;23.806;2022-07-30T14:59:55;7.65;;;6.70;;
20002;SDS011;10162;41.600;23.806;2022-07-30T15:02:21;9.40;;;6.88;;
20002;SDS011;10162;41.600;23.806;2022-07-30T15:08:35;7.75;;;6.95;;
20002;SDS011;10162;41.600;23.806;2022-07-30T15:11:00;7.28;;;6.68;;
20002;SDS011;10162;41.600;23.806;2022-07-30T15:17:14;7.13;;;6.53;;
20002;SDS011;10162;41.600;23.806;2022-07-30T15:19:40;7.63;;;6.85;;
20002;SDS011;10162;41.600;23.806;2022-07-30T15:22:06;7.47;;;6.78;;
20002;SDS011;10162;41.600;23.806;2022-07-30T15:28:18;7.20;;;6.50;;
20002;SDS011;10162;41.600;23.806;2022-07-30T15:30:44;8.32;;;6.45;;
20002;SDS011;10162;41.600;23.806;2022-07-30T15:36:57;7.03;;;6.32;;
20002;SDS011;10162;41.600;23.806;2022-07-30T15:39:24;8.15;;;7.35;;
20002;SDS011;10162;41.600;23.806;2022-07-30T15:41:50;7.85;;;7.05;;
20002;SDS011;10162;41.600;23.806;2022-07-30T15:48:04;7.63;;;6.93;;
20002;SDS011;10162;41.600;23.806;2022-07-30T15:50:30;7.63;;;6.70;;
20002;SDS011;10162;41.600;23.806;2022-07-30T15:56:44;7.63;;;6.93;;
20002;SDS011;10162;41.600;23.806;2022-07-30T15:59:11;9.85;;;6.53;;
20002;SDS011;10162;41.600;23.806;2022-07-30T16:01:37;7.53;;;6.82;;
20002;SDS011;10162;41.600;23.806;2022-07-30T16:07:56;8.32;;;7.00;;
20002;SDS011;10162;41.600;23.806;2022-07-30T16:10:22;7.28;;;6.57;;
20002;SDS011;10162;41.600;23.806;2022-07-30T16:12:48;7.55;;;6.95;;
20002;SDS011;10162;41.600;23.806;2022-07-30T16:15:13;9.50;;;6.70;;
20002;SDS011;10162;41.600;23.806;2022-07-30T16:17:39;8.25;;;6.25;;
20002;SDS011;10162;41.600;23.806;2022-07-30T16:20:05;7.15;;;6.30;;
20002;SDS011;10162;41.600;23.806;2022-07-30T16:22:31;7.13;;;6.18;;
20002;SDS011;10162;41.600;23.806;2022-07-30T16:28:44;7.22;;;6.35;;
20002;SDS011;10162;41.600;23.806;2022-07-30T16:31:10;7.15;;;6.47;;
20002;SDS011;10162;41.600;23.806;2022-07-30T16:37:23;6.63;;;6.03;;
20002;SDS011;10162;41.600;23.806;2022-07-30T16:39:48;6.20;;;5.70;;
20002;SDS011;10162;41.600;23.806;2022-07-30T16:42:14;8.68;;;5.72;;
20002;SDS011;10162;41.600;23.806;2022-07-30T16:48:26;7.13;;;6.53;;
20002;SDS011;10162;41.600;23.806;2022-07-30T16:50:57;8.30;;;6.28;;
20002;SDS011;10162;41.600;23.806;2022-07-30T16:57:11;8.98;;;7.30;;
20002;SDS011;10162;41.600;23.806;2022-07-30T16:59:36;7.55;;;6.85;;
20002;SDS011;10162;41.600;23.806;2022-07-30T17:02:03;6.65;;;6.05;;
20002;SDS011;10162;41.600;23.806;2022-07-30T17:08:28;7.32;;;6.68;;
20002;SDS011;10162;41.600;23.806;2022-07-30T17:10:53;9.48;;;7.63;;
20002;SDS011;10162;41.600;23.806;2022-07-30T17:17:07;6.47;;;5.88;;
20002;SDS011;10162;41.600;23.806;2022-07-30T17:19:33;6.88;;;6.20;;
20002;SDS011;10162;41.600;23.806;2022-07-30T17:21:59;7.88;;;7.18;;
20002;SDS011;10162;41.600;23.806;2022-07-30T17:27:19;8.02;;;7.32;;
20002;SDS011;10162;41.600;23.806;2022-07-30T17:29:45;19.10;;;13.93;;
20002;SDS011;10162;41.600;23.806;2022-07-30T17:32:11;11.30;;;9.23;;
20002;SDS011;10162;41.600;23.806;2022-07-30T17:34:40;7.40;;;5.78;;
20002;SDS011;10162;41.600;23.806;2022-07-30T17:37:05;8.93;;;8.13;;
20002;SDS011;10162;41.600;23.806;2022-07-30T17:39:31;9.52;;;8.57;;
20002;SDS011;10162;41.600;23.806;2022-07-30T17:41:57;17.73;;;11.93;;
20002;SDS011;10162;41.600;23.806;2022-07-30T17:44:23;8.60;;;7.53;;
20002;SDS011;10162;41.600;23.806;2022-07-30T17:46:49;8.10;;;7.40;;
20002;SDS011;10162;41.600;23.806;2022-07-30T17:49:15;6.63;;;6.03;;
20002;SDS011;10162;41.600;23.806;2022-07-30T17:51:40;6.50;;;5.90;;
20002;SDS011;10162;41.600;23.806;2022-07-30T17:57:53;8.15;;;7.35;;
20002;SDS011;10162;41.600;23.806;2022-07-30T18:00:19;9.00;;;8.07;;
20002;SDS011;10162;41.600;23.806;2022-07-30T18:06:44;7.28;;;6.55;;
20002;SDS011;10162;41.600;23.806;2022-07-30T18:09:10;6.53;;;5.82;;
20002;SDS011;10162;41.600;23.806;2022-07-30T18:11:36;7.03;;;6.43;;
20002;SDS011;10162;41.600;23.806;2022-07-30T18:17:49;9.73;;;6.55;;
20002;SDS011;10162;41.600;23.806;2022-07-30T18:20:15;7.85;;;7.07;;
20002;SDS011;10162;41.600;23.806;2022-07-30T18:22:41;9.48;;;7.60;;
20002;SDS011;10162;41.600;23.806;2022-07-30T18:25:07;8.35;;;7.35;;
20002;SDS011;10162;41.600;23.806;2022-07-30T18:27:34;8.55;;;7.75;;
20002;SDS011;10162;41.600;23.806;2022-07-30T18:30:00;8.60;;;7.80;;
20002;SDS011;10162;41.600;23.806;2022-07-30T18:32:25;8.57;;;7.68;;
20002;SDS011;10162;41.600;23.806;2022-07-30T18:38:38;9.40;;;8.45;;
20002;SDS011;10162;41.600;23.806;2022-07-30T18:41:04;10.70;;;8.38;;
20002;SDS011;10162;41.600;23.806;2022-07-30T18:47:17;10.15;;;8.38;;
20002;SDS011;10162;41.600;23.806;2022-07-30T18:49:43;12.82;;;8.57;;
20002;SDS011;10162;41.600;23.806;2022-07-30T18:52:09;11.05;;;8.23;;
20002;SDS011;10162;41.600;23.806;2022-07-30T18:58:22;9.48;;;8.43;;
20002;SDS011;10162;41.600;23.806;2022-07-30T19:00:48;8.50;;;7.70;;
20002;SDS011;10162;41.600;23.806;2022-07-30T19:07:01;8.20;;;7.50;;
20002;SDS011;10162;41.600;23.806;2022-07-30T19:09:27;7.70;;;6.90;;
20002;SDS011;10162;41.600;23.806;2022-07-30T19:11:53;8.23;;;7.07;;
20002;SDS011;10162;41.600;23.806;2022-07-30T19:18:06;7.18;;;6.47;;
20002;SDS011;10162;41.600;23.806;2022-07-30T19:20:34;12.27;;;6.65;;
20002;SDS011;10162;41.600;23.806;2022-07-30T19:26:46;7.70;;;6.80;;
20002;SDS011;10162;41.600;23.806;2022-07-30T19:29:12;7.82;;;7.07;;
20002;SDS011;10162;41.600;23.806;2022-07-30T19:31:38;7.78;;;6.78;;
20002;SDS011;10162;41.600;23.806;2022-07-30T19:37:52;8.15;;;6.75;;
20002;SDS011;10162;41.600;23.806;2022-07-30T19:40:18;8.35;;;7.55;;
20002;SDS011;10162;41.600;23.806;2022-07-30T19:42:44;7.85;;;7.15;;
20002;SDS011;10162;41.600;23.806;2022-07-30T19:45:11;7.82;;;7.03;;
20002;SDS011;10162;41.600;23.806;2022-07-30T19:47:39;8.48;;;7.13;;
20002;SDS011;10162;41.600;23.806;2022-07-30T19:50:06;8.50;;;6.45;;
20002;SDS011;10162;41.600;23.806;2022-07-30T19:52:32;7.78;;;7.07;;
20002;SDS011;10162;41.600;23.806;2022-07-30T19:58:44;7.68;;;6.97;;
20002;SDS011;10162;41.600;23.806;2022-07-30T20:01:10;8.05;;;7.30;;
20002;SDS011;10162;41.600;23.806;2022-07-30T20:07:26;7.18;;;6.47;;
20002;SDS011;10162;41.600;23.806;2022-07-30T20:09:52;7.88;;;7.07;;
20002;SDS011;10162;41.600;23.806;2022-07-30T20:12:18;8.30;;;7.57;;
20002;SDS011;10162;41.600;23.806;2022-07-30T20:18:30;7.57;;;6.87;;
20002;SDS011;10162;41.600;23.806;2022-07-30T20:20:56;8.27;;;7.47;;
20002;SDS011;10162;41.600;23.806;2022-07-30T20:27:08;7.93;;;7.13;;
20002;SDS011;10162;41.600;23.806;2022-07-30T20:29:35;7.33;;;6.73;;
20002;SDS011;10162;41.600;23.806;2022-07-30T20:32:01;8.23;;;7.23;;
20002;SDS011;10162;41.600;23.806;2022-07-30T20:38:14;7.43;;;6.60;;
20002;SDS011;10162;41.600;23.806;2022-07-30T20:40:39;8.23;;;7.43;;